Time;durP1;ratioP1;P1;durP2;ratioP2;P2;SDS_P1;SDS_P2;PMS_P1;PMS_P2;Temp;Humidity;BMP_temperature;BMP_pressure;BME280_temperature;BME280_humidity;BME280_pressure;Samples;Min_cycle;Max_cycle;Signal;HPM_P1;HPM_P2
2021/12/23 00:00:29;;;;;;;45.65;22.77;;;;;;;;;;459082;259;27221;-66
2021/12/23 00:02:31;;;;;;;46.25;23.12;;;;;;;;;;459060;259;27342;-66
2021/12/23 00:04:34;;;;;;;41.63;21.70;;;;;;;;;;459080;259;26738;-66
2021/12/23 00:06:36;;;;;;;45.08;22.75;;;;;;;;;;459097;259;27156;-66
2021/12/23 00:08:39;;;;;;;47.65;21.60;;;;;;;;;;459100;259;27542;-66
2021/12/23 00:10:41;;;;;;;42.58;21.10;;;;;;;;;;459054;259;26548;-66
2021/12/23 00:12:42;;;;;;;42.08;20.10;;;-3.30;99.90;;;;;;459106;259;26412;-67
2021/12/23 00:14:46;;;;;;;35.40;19.23;;;;;;;;;;459080;258;27627;-66
2021/12/23 00:16:55;;;;;;;39.92;19.80;;;;;;;;;;459073;259;26672;-66
2021/12/23 00:18:57;;;;;;;31.05;17.02;;;;;;;;;;458948;259;26619;-66
2021/12/23 00:23:27;;;;;;;30.77;15.98;;;;;;;;;;459080;259;26595;-67
2021/12/23 00:25:27;;;;;;;32.92;17.12;;;-3.40;99.90;;;;;;459060;255;27055;-66
2021/12/23 00:27:29;;;;;;;26.08;14.32;;;;;;;;;;458978;258;28788;-66
2021/12/23 00:29:30;;;;;;;26.48;15.50;;;-3.30;99.90;;;;;;459087;256;27402;-66
2021/12/23 00:31:32;;;;;;;34.47;16.95;;;-3.30;99.90;;;;;;459088;258;27101;-66
2021/12/23 00:33:34;;;;;;;27.08;17.05;;;-3.30;99.90;;;;;;459050;258;27737;-66
2021/12/23 00:35:34;;;;;;;31.70;17.55;;;-3.20;99.90;;;;;;459006;258;27045;-66
2021/12/23 00:37:44;;;;;;;30.20;17.10;;;;;;;;;;459115;258;27044;-66
2021/12/23 00:39:38;;;;;;;36.67;17.35;;;-3.10;99.90;;;;;;458870;259;27038;-67
2021/12/23 00:41:43;;;;;;;28.45;15.77;;;;;;;;;;459089;258;27604;-67
2021/12/23 00:43:43;;;;;;;30.83;16.42;;;;;;;;;;459062;259;27140;-66
2021/12/23 00:45:44;;;;;;;29.90;16.30;;;-3.10;99.90;;;;;;459082;259;26677;-66
2021/12/23 00:47:45;;;;;;;30.25;16.08;;;-3.00;99.90;;;;;;459074;258;27336;-66
2021/12/23 00:49:47;;;;;;;28.10;15.57;;;-3.00;99.90;;;;;;459082;259;27044;-66
2021/12/23 00:51:48;;;;;;;35.53;17.48;;;-3.00;99.90;;;;;;459068;258;27145;-66
2021/12/23 00:53:52;;;;;;;26.80;15.77;;;-2.90;99.90;;;;;;459085;258;27686;-67
2021/12/23 00:55:52;;;;;;;30.45;16.20;;;-2.90;99.90;;;;;;459020;258;27044;-66
2021/12/23 00:57:52;;;;;;;28.85;15.55;;;-2.90;99.90;;;;;;459073;258;27013;-66
2021/12/23 00:59:54;;;;;;;24.55;14.75;;;;;;;;;;459090;259;27129;-66
2021/12/23 01:01:55;;;;;;;27.15;14.30;;;-2.80;99.90;;;;;;459079;259;26568;-67
2021/12/23 01:03:57;;;;;;;25.40;14.60;;;-2.80;99.90;;;;;;459060;258;27370;-66
2021/12/23 01:05:58;;;;;;;23.33;13.27;;;-2.70;99.90;;;;;;459081;254;27262;-66
2021/12/23 01:07:59;;;;;;;22.65;13.68;;;-2.70;99.90;;;;;;459075;258;27211;-66
2021/12/23 01:10:00;;;;;;;21.40;12.90;;;-2.70;99.90;;;;;;459072;258;27143;-66
2021/12/23 01:12:02;;;;;;;24.15;13.15;;;-2.70;99.90;;;;;;459044;253;27626;-66
2021/12/23 01:16:35;;;;;;;22.60;12.63;;;-2.70;99.90;;;;;;459071;258;28515;-67
2021/12/23 01:18:20;;;;;;;24.80;13.25;;;;;;;;;;458832;258;27134;-67
2021/12/23 01:20:25;;;;;;;24.42;14.63;;;-2.60;99.90;;;;;;459087;259;26629;-66
2021/12/23 01:22:21;;;;;;;25.73;14.52;;;-2.60;99.90;;;;;;459069;257;27792;-67
2021/12/23 01:24:26;;;;;;;29.63;13.85;;;-2.70;99.90;;;;;;459033;258;28553;-66
2021/12/23 01:26:23;;;;;;;20.17;12.32;;;-2.90;99.90;;;;;;459023;258;27262;-67
2021/12/23 01:28:26;;;;;;;25.48;13.10;;;-2.90;99.90;;;;;;459110;258;27168;-67
2021/12/23 01:30:26;;;;;;;21.62;11.77;;;-3.00;99.90;;;;;;459077;258;27066;-66
2021/12/23 01:32:27;;;;;;;19.27;11.82;;;-3.00;99.90;;;;;;459071;258;27185;-66
2021/12/23 01:34:28;;;;;;;19.83;11.52;;;-3.00;99.90;;;;;;459073;259;28140;-67
2021/12/23 01:36:30;;;;;;;20.88;11.98;;;-3.00;99.90;;;;;;459108;258;28790;-67
2021/12/23 01:38:31;;;;;;;23.50;12.93;;;-2.90;99.90;;;;;;459119;258;27215;-67
2021/12/23 01:40:32;;;;;;;17.27;10.50;;;-2.80;99.90;;;;;;459113;258;27220;-67
2021/12/23 01:42:33;;;;;;;20.35;12.50;;;-2.90;99.90;;;;;;459084;258;27057;-66
2021/12/23 01:44:35;;;;;;;18.62;11.88;;;-2.80;99.90;;;;;;463221;252;27450;-66
2021/12/23 01:46:36;;;;;;;22.55;12.68;;;-2.70;99.90;;;;;;468596;253;26981;-66
2021/12/23 01:48:37;;;;;;;23.40;13.80;;;-2.60;99.90;;;;;;468649;254;27614;-66
2021/12/23 01:50:39;;;;;;;21.55;12.20;;;-2.50;99.90;;;;;;468663;253;27180;-66
2021/12/23 01:52:40;;;;;;;22.75;13.25;;;-2.50;99.90;;;;;;468610;254;27346;-66
2021/12/23 01:54:42;;;;;;;22.95;12.20;;;-2.40;99.90;;;;;;468683;254;27244;-66
2021/12/23 01:56:44;;;;;;;19.77;11.27;;;-2.40;99.90;;;;;;468670;253;27140;-67
2021/12/23 01:58:45;;;;;;;23.80;13.07;;;-2.30;99.90;;;;;;468610;253;28247;-66
2021/12/23 02:00:46;;;;;;;23.42;13.40;;;-2.30;99.90;;;;;;468689;252;27913;-67
2021/12/23 02:02:48;;;;;;;21.20;11.90;;;-2.20;99.90;;;;;;468623;253;27330;-67
2021/12/23 02:04:49;;;;;;;21.90;12.73;;;-2.20;99.90;;;;;;468619;253;27501;-66
2021/12/23 02:06:50;;;;;;;24.17;12.82;;;-2.20;99.90;;;;;;468620;253;27358;-66
2021/12/23 02:08:51;;;;;;;29.08;14.10;;;-2.20;99.90;;;;;;468588;253;27290;-67
2021/12/23 02:10:53;;;;;;;21.62;12.50;;;-2.20;99.90;;;;;;468641;253;27712;-66
2021/12/23 02:12:54;;;;;;;24.85;12.73;;;-2.10;99.90;;;;;;468582;254;29124;-67
2021/12/23 02:14:55;;;;;;;20.92;12.37;;;-2.00;99.90;;;;;;468601;253;27266;-67
2021/12/23 02:16:56;;;;;;;28.62;14.27;;;-1.90;99.90;;;;;;468659;253;27417;-66
2021/12/23 02:18:58;;;;;;;24.30;14.70;;;-1.90;99.90;;;;;;468645;253;27483;-67
2021/12/23 02:20:59;;;;;;;20.02;12.60;;;-1.90;99.90;;;;;;468657;253;27318;-66
2021/12/23 02:23:00;;;;;;;23.20;13.18;;;-1.80;99.90;;;;;;468583;253;27261;-66
2021/12/23 02:25:01;;;;;;;24.65;13.80;;;-1.80;99.90;;;;;;468610;253;28592;-66
2021/12/23 02:27:03;;;;;;;27.95;14.73;;;-1.80;99.90;;;;;;468461;254;27947;-67
2021/12/23 02:29:05;;;;;;;23.77;13.52;;;-1.70;99.90;;;;;;468453;254;27556;-66
2021/12/23 02:31:06;;;;;;;22.00;12.65;;;-1.70;99.90;;;;;;468650;254;27457;-67
2021/12/23 02:33:07;;;;;;;21.87;13.40;;;-1.60;99.90;;;;;;468642;253;28042;-67
2021/12/23 02:35:08;;;;;;;23.48;13.50;;;-1.70;99.90;;;;;;470352;252;28878;-67
2021/12/23 02:37:10;;;;;;;21.50;12.68;;;-1.70;99.90;;;;;;473178;251;27537;-66
2021/12/23 02:39:11;;;;;;;21.42;12.43;;;-1.60;99.90;;;;;;473205;251;27390;-67
2021/12/23 02:41:12;;;;;;;21.87;13.45;;;-1.50;99.90;;;;;;473162;251;27550;-67
2021/12/23 02:43:13;;;;;;;23.62;12.88;;;-1.60;99.90;;;;;;473184;251;27532;-66
2021/12/23 02:45:15;;;;;;;21.90;12.55;;;-1.50;99.90;;;;;;473153;251;28016;-66
2021/12/23 02:47:18;;;;;;;25.30;13.88;;;-1.40;99.90;;;;;;473142;251;29287;-66
2021/12/23 02:49:17;;;;;;;21.15;12.45;;;-1.40;99.90;;;;;;471178;251;27631;-67
2021/12/23 02:51:19;;;;;;;22.27;11.88;;;-1.50;99.90;;;;;;466262;254;27595;-66
2021/12/23 02:53:20;;;;;;;20.33;12.23;;;-1.50;99.90;;;;;;460152;257;27563;-67
2021/12/23 02:55:21;;;;;;;24.48;13.77;;;-1.50;99.90;;;;;;460117;257;27627;-67
2021/12/23 02:57:23;;;;;;;21.85;12.85;;;-1.50;99.90;;;;;;460111;257;27586;-67
2021/12/23 02:59:24;;;;;;;17.58;10.57;;;-1.60;99.90;;;;;;460023;257;27988;-67
2021/12/23 03:01:25;;;;;;;19.67;11.05;;;-1.50;99.90;;;;;;460087;257;27593;-68
2021/12/23 03:03:26;;;;;;;20.73;11.80;;;-1.50;99.90;;;;;;460143;257;27623;-67
2021/12/23 03:05:27;;;;;;;20.65;12.13;;;-1.50;99.90;;;;;;460134;257;27575;-67
2021/12/23 03:07:29;;;;;;;21.73;11.85;;;-1.60;99.90;;;;;;460118;257;27598;-67
2021/12/23 03:09:30;;;;;;;18.77;12.02;;;-1.60;99.90;;;;;;460110;257;27540;-67
2021/12/23 03:11:31;;;;;;;16.25;10.32;;;-1.60;99.90;;;;;;460092;257;28035;-67
2021/12/23 03:13:32;;;;;;;22.30;13.40;;;-1.60;99.90;;;;;;460097;257;28007;-67
2021/12/23 03:15:34;;;;;;;23.85;13.23;;;-1.60;99.90;;;;;;460150;257;27556;-67
2021/12/23 03:17:35;;;;;;;22.83;11.57;;;-1.60;99.90;;;;;;460110;257;27585;-67
2021/12/23 03:19:36;;;;;;;21.48;12.40;;;-1.60;99.90;;;;;;460147;257;27564;-67
2021/12/23 03:21:37;;;;;;;22.02;12.23;;;-1.60;99.90;;;;;;460141;257;27610;-67
2021/12/23 03:23:39;;;;;;;23.00;12.55;;;-1.60;99.90;;;;;;460102;257;27980;-68
2021/12/23 03:25:40;;;;;;;19.37;11.43;;;-1.70;99.90;;;;;;460136;257;29096;-67
2021/12/23 03:27:41;;;;;;;23.17;12.25;;;-1.70;99.90;;;;;;460186;257;27587;-67
2021/12/23 03:29:42;;;;;;;21.98;12.07;;;-1.60;99.90;;;;;;460121;257;27583;-67
2021/12/23 03:31:44;;;;;;;20.27;12.23;;;-1.60;99.90;;;;;;460168;257;27593;-67
2021/12/23 03:33:45;;;;;;;23.85;12.73;;;-1.60;99.90;;;;;;460136;257;27603;-67
2021/12/23 03:35:46;;;;;;;23.58;13.48;;;-1.60;99.90;;;;;;460149;257;27639;-67
2021/12/23 03:37:47;;;;;;;22.67;13.25;;;-1.60;99.90;;;;;;460106;257;28165;-67
2021/12/23 03:39:51;;;;;;;22.52;13.20;;;-1.60;99.90;;;;;;460160;257;27991;-67
2021/12/23 03:41:50;;;;;;;22.95;12.57;;;-1.70;99.90;;;;;;460064;257;27576;-67
2021/12/23 03:43:51;;;;;;;21.70;11.85;;;-1.70;99.90;;;;;;460098;258;27537;-67
2021/12/23 03:45:53;;;;;;;22.60;12.90;;;-1.60;99.90;;;;;;460079;257;27567;-67
2021/12/23 03:47:54;;;;;;;23.65;13.75;;;-1.50;99.90;;;;;;460165;257;27462;-67
2021/12/23 03:49:55;;;;;;;21.23;13.00;;;-1.50;99.90;;;;;;460065;257;28839;-67
2021/12/23 03:51:56;;;;;;;24.55;12.90;;;-1.40;99.90;;;;;;460137;257;28157;-67
2021/12/23 03:53:58;;;;;;;21.40;13.10;;;-1.50;99.90;;;;;;460142;257;27579;-67
2021/12/23 03:55:59;;;;;;;19.87;12.43;;;-1.40;99.90;;;;;;460139;257;27543;-67
2021/12/23 03:58:00;;;;;;;23.15;12.15;;;-1.50;99.90;;;;;;460151;257;27611;-67
2021/12/23 04:00:01;;;;;;;20.48;12.32;;;-1.40;99.90;;;;;;460134;257;27622;-67
2021/12/23 04:02:03;;;;;;;17.60;11.57;;;-1.40;99.90;;;;;;460058;257;28147;-67
2021/12/23 04:04:04;;;;;;;18.62;11.85;;;-1.40;99.90;;;;;;460121;257;29775;-67
2021/12/23 04:06:05;;;;;;;23.52;12.15;;;-1.40;99.90;;;;;;460134;257;27610;-67
2021/12/23 04:08:06;;;;;;;18.42;11.23;;;-1.30;99.90;;;;;;460155;257;27584;-67
2021/12/23 04:10:08;;;;;;;20.37;10.48;;;-1.10;99.90;;;;;;460137;257;27670;-67
2021/12/23 04:12:09;;;;;;;18.60;11.27;;;-1.10;99.90;;;;;;460081;257;27599;-67
2021/12/23 04:14:10;;;;;;;19.42;10.85;;;-1.00;99.90;;;;;;460075;257;27582;-67
2021/12/23 04:16:11;;;;;;;20.10;10.93;;;-0.90;99.90;;;;;;460144;257;27985;-67
2021/12/23 04:18:13;;;;;;;19.52;10.68;;;-0.90;99.90;;;;;;460087;257;27682;-67
2021/12/23 04:20:23;;;;;;;21.80;11.38;;;-0.80;99.90;;;;;;460121;257;27563;-67
2021/12/23 04:22:21;;;;;;;20.15;11.45;;;-0.80;99.90;;;;;;459802;257;29262;-67
2021/12/23 04:24:22;;;;;;;17.58;10.52;;;-0.70;99.90;;;;;;460105;257;27572;-67
2021/12/23 04:26:23;;;;;;;19.85;11.25;;;-0.60;99.90;;;;;;460113;257;27546;-67
2021/12/23 04:28:25;;;;;;;19.45;11.70;;;-0.60;99.90;;;;;;460098;257;27605;-67
2021/12/23 04:30:26;;;;;;;19.55;11.75;;;-0.60;99.90;;;;;;460177;257;27643;-67
2021/12/23 04:32:27;;;;;;;19.83;11.00;;;-0.60;99.90;;;;;;460124;257;27691;-72
2021/12/23 04:34:29;;;;;;;15.73;10.27;;;-0.60;99.90;;;;;;460108;257;28045;-67
2021/12/23 04:36:30;;;;;;;22.48;12.50;;;-0.60;99.90;;;;;;460144;257;27620;-67
2021/12/23 04:38:31;;;;;;;19.83;11.57;;;-0.50;99.90;;;;;;460055;257;27579;-67
2021/12/23 04:40:36;;;;;;;19.60;11.95;;;-0.50;99.90;;;;;;460137;257;27542;-67
2021/12/23 04:42:34;;;;;;;20.17;12.10;;;-0.40;99.90;;;;;;459661;258;27570;-67
2021/12/23 04:44:35;;;;;;;23.48;10.85;;;-0.40;99.90;;;;;;460126;257;27916;-71
2021/12/23 04:46:36;;;;;;;18.67;11.30;;;-0.50;99.90;;;;;;460169;257;27992;-69
2021/12/23 04:48:37;;;;;;;20.48;12.18;;;-0.50;99.90;;;;;;460131;257;29142;-68
2021/12/23 04:50:39;;;;;;;20.42;11.70;;;-0.50;99.90;;;;;;460131;257;27580;-68
2021/12/23 04:52:40;;;;;;;19.90;11.63;;;-0.50;99.90;;;;;;460151;257;27599;-68
2021/12/23 04:54:41;;;;;;;20.77;10.75;;;-0.40;99.90;;;;;;460165;257;27605;-68
2021/12/23 04:56:42;;;;;;;18.20;11.00;;;-0.30;99.90;;;;;;460169;257;27564;-68
2021/12/23 04:58:44;;;;;;;18.80;11.20;;;-0.40;99.90;;;;;;460138;257;27956;-68
2021/12/23 05:00:48;;;;;;;16.33;10.18;;;-0.40;99.90;;;;;;460152;257;28107;-68
2021/12/23 05:02:46;;;;;;;16.23;10.85;;;-0.40;99.90;;;;;;459951;258;27570;-68
2021/12/23 05:04:50;;;;;;;18.05;10.20;;;-0.40;99.90;;;;;;460153;257;27584;-68
2021/12/23 05:06:49;;;;;;;20.27;10.73;;;-0.50;99.90;;;;;;459959;258;27587;-67
2021/12/23 05:08:50;;;;;;;14.75;9.48;;;-0.50;99.90;;;;;;460115;257;27618;-68
2021/12/23 05:10:51;;;;;;;19.40;10.50;;;-0.50;99.90;;;;;;460149;257;27647;-67
2021/12/23 05:12:52;;;;;;;15.20;9.50;;;-0.50;99.90;;;;;;460111;257;28092;-67
2021/12/23 05:14:54;;;;;;;16.15;9.45;;;-0.50;99.90;;;;;;460157;257;29207;-67
2021/12/23 05:16:55;;;;;;;14.38;8.85;;;-0.50;99.90;;;;;;460155;257;27524;-68
2021/12/23 05:18:56;;;;;;;12.98;8.35;;;-0.50;99.90;;;;;;460142;257;27599;-67
2021/12/23 05:20:57;;;;;;;16.17;8.88;;;-0.40;99.90;;;;;;460130;257;27657;-67
2021/12/23 05:22:59;;;;;;;15.52;9.15;;;-0.40;99.90;;;;;;460156;257;27675;-67
2021/12/23 05:25:00;;;;;;;12.60;8.18;;;-0.30;99.90;;;;;;460167;257;27588;-66
2021/12/23 05:27:01;;;;;;;16.05;9.10;;;-0.30;99.90;;;;;;460161;257;27628;-67
2021/12/23 05:29:03;;;;;;;12.50;8.18;;;-0.30;99.90;;;;;;460118;258;28185;-67
2021/12/23 05:31:04;;;;;;;13.20;8.27;;;-0.30;99.90;;;;;;460143;257;27984;-67
2021/12/23 05:33:05;;;;;;;13.62;8.27;;;-0.20;99.90;;;;;;460164;257;27662;-67
2021/12/23 05:35:06;;;;;;;19.42;8.65;;;-0.30;99.90;;;;;;460160;257;27583;-67
2021/12/23 05:37:08;;;;;;;16.48;8.70;;;-0.30;99.90;;;;;;460183;257;27619;-67
2021/12/23 05:39:09;;;;;;;13.68;8.43;;;-0.30;99.90;;;;;;460255;257;27604;-66
2021/12/23 05:41:10;;;;;;;14.43;8.82;;;-0.30;99.90;;;;;;460072;257;27535;-67
2021/12/23 05:43:11;;;;;;;13.18;8.32;;;-0.20;99.90;;;;;;460154;257;28030;-67
2021/12/23 05:45:13;;;;;;;13.45;8.65;;;-0.20;99.90;;;;;;460134;257;28027;-67
2021/12/23 05:47:14;;;;;;;13.65;8.73;;;-0.20;99.90;;;;;;460138;257;27564;-67
2021/12/23 05:49:15;;;;;;;12.07;8.32;;;-0.20;99.90;;;;;;460105;257;27574;-67
2021/12/23 05:51:16;;;;;;;12.45;7.93;;;-0.20;99.90;;;;;;460105;257;27621;-67
2021/12/23 05:53:18;;;;;;;11.60;7.80;;;-0.20;99.90;;;;;;460104;257;27543;-68
2021/12/23 05:55:19;;;;;;;12.88;7.95;;;-0.30;99.90;;;;;;460142;257;27622;-68
2021/12/23 05:57:20;;;;;;;15.20;9.25;;;-0.30;99.90;;;;;;460129;257;27639;-68
2021/12/23 05:59:21;;;;;;;13.80;8.27;;;-0.20;99.90;;;;;;460138;257;28006;-69
2021/12/23 06:01:23;;;;;;;13.50;7.90;;;-0.20;99.90;;;;;;460158;257;29088;-68
2021/12/23 06:03:24;;;;;;;11.93;8.10;;;-0.10;99.90;;;;;;460179;257;27550;-68
2021/12/23 06:05:25;;;;;;;14.25;8.90;;;-0.20;99.90;;;;;;460146;257;27596;-69
2021/12/23 06:07:26;;;;;;;14.02;8.82;;;-0.10;99.90;;;;;;460160;257;27625;-68
2021/12/23 06:09:28;;;;;;;15.65;9.50;;;-0.10;99.90;;;;;;460171;257;27555;-68
2021/12/23 06:11:29;;;;;;;15.32;9.43;;;0.00;99.90;;;;;;460157;257;27691;-68
2021/12/23 06:13:30;;;;;;;15.70;10.10;;;0.00;99.90;;;;;;460132;257;27586;-69
2021/12/23 06:15:31;;;;;;;19.58;10.63;;;0.10;99.90;;;;;;460159;257;28053;-70
2021/12/23 06:17:33;;;;;;;16.42;10.18;;;0.10;99.90;;;;;;460150;257;28078;-70
2021/12/23 06:19:34;;;;;;;18.05;11.80;;;0.10;99.90;;;;;;460173;257;27568;-69
2021/12/23 06:21:35;;;;;;;20.02;11.43;;;0.20;99.90;;;;;;460199;257;27659;-70
2021/12/23 06:23:36;;;;;;;15.80;10.25;;;0.20;99.90;;;;;;460172;257;27568;-70
2021/12/23 06:25:39;;;;;;;17.87;10.57;;;0.10;99.90;;;;;;460182;257;27548;-70
2021/12/23 06:27:40;;;;;;;15.55;9.82;;;0.10;99.90;;;;;;460192;257;27702;-70
2021/12/23 06:29:41;;;;;;;15.68;9.98;;;0.00;99.90;;;;;;460167;257;27631;-70
2021/12/23 06:31:42;;;;;;;19.27;11.30;;;0.10;99.90;;;;;;460117;257;28146;-70
2021/12/23 06:33:44;;;;;;;18.25;10.73;;;0.10;99.90;;;;;;460156;257;28161;-69
2021/12/23 06:35:45;;;;;;;19.55;12.07;;;0.10;99.90;;;;;;460206;257;27621;-70
2021/12/23 06:37:46;;;;;;;20.10;11.90;;;0.10;99.90;;;;;;460214;257;27572;-70
2021/12/23 06:39:48;;;;;;;20.83;11.77;;;0.10;99.90;;;;;;460204;257;27544;-69
2021/12/23 06:41:49;;;;;;;20.70;11.38;;;0.00;99.90;;;;;;460177;257;27648;-70
2021/12/23 06:43:50;;;;;;;20.45;11.50;;;0.10;99.90;;;;;;460217;257;27459;-70
2021/12/23 06:45:51;;;;;;;20.27;11.82;;;0.10;99.90;;;;;;460211;257;27551;-70
2021/12/23 06:47:53;;;;;;;20.88;12.40;;;0.00;99.90;;;;;;460224;257;28123;-69
2021/12/23 06:49:54;;;;;;;19.12;11.40;;;0.10;99.90;;;;;;460202;257;29187;-70
2021/12/23 06:51:55;;;;;;;22.17;11.30;;;0.10;99.90;;;;;;460180;257;27582;-70
2021/12/23 06:53:58;;;;;;;18.37;11.52;;;0.10;99.90;;;;;;460155;257;27579;-70
2021/12/23 06:56:00;;;;;;;21.25;12.55;;;0.10;99.90;;;;;;460115;258;27585;-69
2021/12/23 06:57:59;;;;;;;16.08;10.57;;;0.10;99.90;;;;;;460056;258;27600;-69
2021/12/23 07:00:00;;;;;;;18.33;11.07;;;0.10;99.90;;;;;;460181;257;27551;-70
2021/12/23 07:02:01;;;;;;;17.20;10.85;;;0.10;99.90;;;;;;460155;257;28132;-70
2021/12/23 07:06:06;;;;;;;19.85;11.98;;;0.10;99.90;;;;;;470543;252;27832;-70
2021/12/23 07:08:23;;;;;;;18.08;10.82;;;0.20;99.90;;;;;;470531;252;27637;-69
2021/12/23 07:10:14;;;;;;;18.30;10.77;;;0.20;99.90;;;;;;469855;252;27886;-70
2021/12/23 07:12:14;;;;;;;19.10;11.80;;;0.20;99.90;;;;;;470703;252;27483;-73
2021/12/23 07:14:15;;;;;;;18.12;10.93;;;0.30;99.90;;;;;;470765;252;27434;-70
2021/12/23 07:16:16;;;;;;;18.37;11.40;;;0.30;99.90;;;;;;470732;252;27485;-69
2021/12/23 07:18:17;;;;;;;19.37;11.57;;;0.30;99.90;;;;;;470668;252;27580;-68
2021/12/23 07:20:19;;;;;;;18.52;11.00;;;0.50;99.90;;;;;;470486;252;27581;-71
2021/12/23 07:22:20;;;;;;;18.92;12.37;;;0.50;99.90;;;;;;468417;252;27467;-68
2021/12/23 07:24:21;;;;;;;21.87;13.15;;;0.60;99.90;;;;;;475434;250;28536;-68
2021/12/23 07:26:22;;;;;;;22.23;13.95;;;0.70;99.90;;;;;;470006;253;28000;-68
2021/12/23 07:28:24;;;;;;;26.45;15.48;;;0.60;99.90;;;;;;472510;251;27529;-68
2021/12/23 07:30:25;;;;;;;24.00;13.35;;;0.60;99.90;;;;;;467097;254;27429;-68
2021/12/23 07:32:26;;;;;;;26.80;14.07;;;0.60;99.90;;;;;;475456;250;27510;-68
2021/12/23 07:34:27;;;;;;;24.63;15.40;;;0.70;99.90;;;;;;470035;253;27551;-68
2021/12/23 07:36:29;;;;;;;24.80;14.95;;;0.70;99.90;;;;;;472502;251;27543;-69
2021/12/23 07:38:30;;;;;;;23.73;15.07;;;0.80;99.90;;;;;;467040;254;27473;-68
2021/12/23 07:40:31;;;;;;;21.02;14.82;;;0.80;99.90;;;;;;475473;244;27866;-68
2021/12/23 07:42:34;;;;;;;24.25;13.88;;;0.90;99.90;;;;;;469906;253;28017;-69
2021/12/23 07:44:34;;;;;;;26.60;15.02;;;0.90;99.90;;;;;;472460;251;27626;-69
2021/12/23 07:46:35;;;;;;;25.55;14.00;;;1.00;99.90;;;;;;467101;254;27477;-68
2021/12/23 07:48:36;;;;;;;22.85;13.02;;;1.00;99.90;;;;;;475470;250;27460;-68
2021/12/23 07:50:37;;;;;;;24.98;13.98;;;1.00;99.90;;;;;;470066;253;27620;-71
2021/12/23 07:52:39;;;;;;;24.45;14.05;;;1.10;99.90;;;;;;472584;251;27542;-70
2021/12/23 07:54:40;;;;;;;27.55;14.98;;;1.20;99.90;;;;;;467082;249;27916;-71
2021/12/23 07:56:41;;;;;;;23.05;13.77;;;1.20;99.90;;;;;;475539;245;27867;-70
2021/12/23 07:58:42;;;;;;;24.50;13.98;;;1.20;99.90;;;;;;470068;253;28140;-70
2021/12/23 08:00:44;;;;;;;22.55;14.25;;;1.10;99.90;;;;;;472510;251;27516;-70
2021/12/23 08:02:45;;;;;;;24.63;14.15;;;1.20;99.90;;;;;;467155;254;27421;-70
2021/12/23 08:04:46;;;;;;;25.95;13.75;;;1.30;99.90;;;;;;475540;250;27450;-70
2021/12/23 08:06:54;;;;;;;25.80;14.30;;;1.30;99.90;;;;;;470024;253;27722;-70
2021/12/23 08:08:49;;;;;;;23.17;13.45;;;1.30;99.90;;;;;;472107;251;27550;-71
2021/12/23 08:10:50;;;;;;;21.60;13.00;;;1.30;99.90;;;;;;467115;254;28425;-70
2021/12/23 08:12:51;;;;;;;27.58;15.70;;;1.30;99.90;;;;;;475541;250;28006;-70
2021/12/23 08:14:52;;;;;;;24.23;14.02;;;1.30;99.90;;;;;;470033;253;27672;-70
2021/12/23 08:16:54;;;;;;;24.27;14.35;;;1.30;99.90;;;;;;472560;251;27503;-70
2021/12/23 08:18:55;;;;;;;23.75;14.10;;;1.30;99.90;;;;;;467071;254;27422;-70
2021/12/23 08:20:56;;;;;;;25.40;14.63;;;1.40;99.90;;;;;;475569;250;27537;-71
2021/12/23 08:22:58;;;;;;;24.90;14.30;;;1.50;99.90;;;;;;470036;249;27529;-70
2021/12/23 08:24:59;;;;;;;27.87;14.90;;;1.50;99.90;;;;;;472588;251;27539;-70
2021/12/23 08:27:00;;;;;;;27.17;14.82;;;1.50;99.90;;;;;;467120;254;27869;-70
2021/12/23 08:29:01;;;;;;;25.52;14.13;;;1.50;99.90;;;;;;475525;244;27868;-70
2021/12/23 08:31:03;;;;;;;23.60;14.23;;;1.50;99.90;;;;;;469877;253;27583;-73
2021/12/23 08:33:04;;;;;;;25.62;14.82;;;1.50;99.90;;;;;;472454;251;27553;-70
2021/12/23 08:35:05;;;;;;;25.15;14.65;;;1.60;99.90;;;;;;467115;254;27564;-70
2021/12/23 08:37:11;;;;;;;20.67;13.43;;;1.60;99.90;;;;;;475485;250;27481;-69
2021/12/23 08:39:08;;;;;;;26.85;14.30;;;1.60;99.90;;;;;;469751;253;27589;-70
2021/12/23 08:41:09;;;;;;;21.85;14.00;;;1.60;99.90;;;;;;472591;251;27652;-71
2021/12/23 08:43:10;;;;;;;21.95;13.80;;;1.60;99.90;;;;;;467170;254;27876;-70
2021/12/23 08:45:11;;;;;;;21.30;13.10;;;1.60;99.90;;;;;;475524;250;27923;-70
2021/12/23 08:47:14;;;;;;;18.48;13.07;;;1.60;99.90;;;;;;470100;253;27550;-70
2021/12/23 08:49:14;;;;;;;24.58;13.98;;;1.60;99.90;;;;;;472520;251;27591;-70
2021/12/23 08:51:15;;;;;;;22.75;14.20;;;1.70;99.90;;;;;;467110;254;27453;-71
2021/12/23 08:53:16;;;;;;;21.85;12.95;;;1.80;99.90;;;;;;475527;250;27406;-70
2021/12/23 08:55:18;;;;;;;24.52;14.10;;;1.70;99.90;;;;;;470005;253;27615;-70
2021/12/23 08:57:19;;;;;;;22.30;13.68;;;1.80;99.90;;;;;;472608;251;28491;-71
2021/12/23 08:59:20;;;;;;;20.92;12.50;;;1.80;99.90;;;;;;467131;254;27900;-69
2021/12/23 09:01:21;;;;;;;21.52;14.20;;;1.80;99.90;;;;;;475496;248;27932;-70
2021/12/23 09:03:23;;;;;;;22.65;14.20;;;1.80;99.90;;;;;;470056;253;27509;-70
2021/12/23 09:05:24;;;;;;;23.58;13.13;;;1.80;99.90;;;;;;472525;251;27599;-70
2021/12/23 09:07:26;;;;;;;22.45;12.43;;;1.80;99.90;;;;;;467103;254;27528;-71
2021/12/23 09:09:31;;;;;;;25.12;14.23;;;1.80;99.90;;;;;;475563;250;27426;-71
2021/12/23 09:11:29;;;;;;;19.40;12.35;;;1.90;99.90;;;;;;469742;253;28404;-70
2021/12/23 09:13:30;;;;;;;20.60;12.30;;;1.90;99.90;;;;;;472568;251;27952;-70
2021/12/23 09:15:31;;;;;;;21.58;13.15;;;1.80;99.90;;;;;;467112;254;27956;-70
2021/12/23 09:17:33;;;;;;;22.73;12.02;;;1.90;99.90;;;;;;475493;250;27386;-70
2021/12/23 09:19:34;;;;;;;22.60;12.75;;;1.90;99.90;;;;;;470032;253;27618;-70
2021/12/23 09:21:35;;;;;;;21.08;13.10;;;2.00;99.90;;;;;;472519;251;27521;-70
2021/12/23 09:23:36;;;;;;;21.00;13.95;;;2.00;99.90;;;;;;467112;254;27436;-70
2021/12/23 09:25:38;;;;;;;21.42;13.43;;;2.00;99.90;;;;;;475550;250;27470;-70
2021/12/23 09:28:29;;;;;;;22.92;15.98;;;2.00;99.90;;;;;;470026;253;28000;-70
2021/12/23 09:34:04;;;;;;;23.70;14.30;;;2.10;99.90;;;;;;475501;249;27941;-71
2021/12/23 09:36:05;;;;;;;21.40;13.95;;;2.20;99.90;;;;;;470061;253;28374;-70
2021/12/23 09:38:07;;;;;;;21.83;13.30;;;2.30;99.90;;;;;;472537;251;27724;-70
2021/12/23 09:40:08;;;;;;;20.12;13.32;;;2.40;99.90;;;;;;467095;254;27461;-71
2021/12/23 09:42:09;;;;;;;24.23;14.40;;;2.40;99.90;;;;;;475508;250;27430;-71
2021/12/23 09:44:11;;;;;;;22.45;13.70;;;2.40;99.90;;;;;;469988;253;27545;-71
2021/12/23 09:46:12;;;;;;;24.35;14.05;;;2.40;99.90;;;;;;472522;251;27575;-70
2021/12/23 09:48:13;;;;;;;19.80;12.80;;;2.40;99.90;;;;;;467173;254;27949;-70
2021/12/23 09:50:14;;;;;;;20.17;12.82;;;2.40;99.90;;;;;;475481;250;27842;-71
2021/12/23 09:52:15;;;;;;;19.80;11.77;;;2.40;99.90;;;;;;470010;253;27517;-70
2021/12/23 09:54:17;;;;;;;19.58;12.68;;;2.40;99.90;;;;;;472553;251;27536;-71
2021/12/23 09:56:18;;;;;;;20.55;12.23;;;2.40;99.90;;;;;;467023;254;27430;-70
2021/12/23 09:58:19;;;;;;;19.08;11.98;;;2.40;99.90;;;;;;475533;250;27513;-70
2021/12/23 10:00:20;;;;;;;18.85;12.20;;;2.40;99.90;;;;;;470057;253;27595;-70
2021/12/23 10:02:22;;;;;;;16.95;11.60;;;2.50;99.90;;;;;;472540;252;27603;-71
2021/12/23 10:04:23;;;;;;;22.73;13.18;;;2.50;99.90;;;;;;467123;254;27923;-70
2021/12/23 10:06:25;;;;;;;19.55;13.13;;;2.60;99.90;;;;;;475483;250;29602;-70
2021/12/23 10:08:25;;;;;;;20.98;13.27;;;2.60;99.90;;;;;;469951;253;27520;-70
2021/12/23 10:10:33;;;;;;;19.17;11.38;;;2.70;99.90;;;;;;472598;251;27531;-70
2021/12/23 10:13:08;;;;;;;24.52;12.88;;;2.60;99.90;;;;;;466669;254;27533;-71
2021/12/23 10:30:10;;;;;;;17.30;11.68;;;2.80;99.90;;;;;;472550;250;27593;-70
2021/12/23 10:31:09;;;;;;;24.20;13.60;;;2.90;99.90;;;;;;465645;253;27494;-70
2021/12/23 10:37:13;;;;;;;21.42;12.10;;;3.10;99.90;;;;;;470054;253;27548;-71
2021/12/23 10:37:16;;;;;;;22.10;13.70;;;3.10;99.90;;;;;;471116;251;27553;-71
2021/12/23 10:39:15;;;;;;;18.95;12.98;;;3.10;99.90;;;;;;467045;254;27528;-71
2021/12/23 10:41:17;;;;;;;26.55;13.62;;;3.20;99.90;;;;;;475559;250;27799;-70
2021/12/23 10:43:18;;;;;;;19.45;12.45;;;3.10;99.90;;;;;;470107;253;28003;-71
2021/12/23 10:45:19;;;;;;;18.60;12.45;;;3.20;99.90;;;;;;472537;251;28113;-71
2021/12/23 10:54:19;;;;;;;18.70;12.45;;;3.20;99.90;;;;;;482579;241;27416;-70
2021/12/23 10:58:15;;;;;;;18.77;11.12;;;3.30;99.90;;;;;;466751;253;27936;-70
2021/12/23 11:00:12;;;;;;;22.05;13.10;;;3.30;99.90;;;;;;476802;247;28045;-70